createdAt,value
2022-09-04T00:00:03.621Z,13.25
2022-09-04T00:03:15.725Z,8.75
2022-09-04T00:06:05.717Z,12.80
2022-09-04T00:08:51.795Z,14.55
2022-09-04T00:11:44.711Z,12.35
2022-09-04T00:14:37.173Z,8.68
2022-09-04T00:17:34.562Z,9.18
2022-09-04T00:20:20.504Z,8.43
2022-09-04T00:23:12.327Z,9.43
2022-09-04T00:26:03.778Z,10.40
2022-09-04T00:28:54.181Z,10.98
2022-09-04T00:31:48.392Z,10.43
2022-09-04T00:34:55.831Z,8.93
2022-09-04T00:38:06.652Z,10.68
2022-09-04T00:41:15.208Z,11.10
2022-09-04T00:44:28.249Z,8.20
2022-09-04T00:47:17.466Z,8.95
2022-09-04T00:50:07.237Z,10.20
2022-09-04T00:53:21.279Z,10.50
2022-09-04T00:56:36.517Z,6.70
2022-09-04T00:59:34.864Z,8.65
2022-09-04T01:02:36.138Z,8.10
2022-09-04T01:05:32.221Z,8.70
2022-09-04T01:08:31.485Z,10.82
2022-09-04T01:11:29.735Z,12.52
2022-09-04T01:14:20.849Z,9.52
2022-09-04T01:17:15.016Z,11.55
2022-09-04T01:20:14.658Z,9.68
2022-09-04T01:23:19.049Z,12.48
2022-09-04T01:26:04.853Z,10.57
2022-09-04T01:29:28.531Z,15.38
2022-09-04T01:32:38.918Z,10.18
2022-09-04T01:35:33.962Z,10.40
2022-09-04T01:38:34.376Z,10.85
2022-09-04T01:41:24.718Z,8.93
2022-09-04T01:44:12.306Z,8.10
2022-09-04T01:47:17.297Z,10.55
2022-09-04T01:50:10.787Z,9.38
2022-09-04T01:53:25.936Z,10.02
2022-09-04T01:56:44.100Z,12.35
2022-09-04T01:59:33.897Z,9.02
2022-09-04T02:02:46.933Z,8.48
2022-09-04T02:05:56.765Z,9.40
2022-09-04T02:08:47.367Z,9.60
2022-09-04T02:11:33.840Z,8.90
2022-09-04T02:14:22.956Z,9.50
2022-09-04T02:17:28.106Z,11.70
2022-09-04T02:20:32.671Z,7.28
2022-09-04T02:23:30.089Z,10.68
2022-09-04T02:26:42.970Z,8.73
2022-09-04T02:29:47.796Z,10.98
2022-09-04T02:32:40.152Z,14.15
2022-09-04T02:35:50.971Z,7.43
2022-09-04T02:38:55.093Z,16.48
2022-09-04T02:42:03.916Z,7.38
2022-09-04T02:45:01.435Z,17.73
2022-09-04T02:47:52.809Z,8.38
2022-09-04T02:51:13.804Z,10.30
2022-09-04T02:54:09.875Z,8.60
2022-09-04T02:57:17.607Z,11.95
2022-09-04T03:00:18.348Z,6.38
2022-09-04T03:03:18.612Z,6.78
2022-09-04T03:06:14.646Z,7.32
2022-09-04T03:09:06.625Z,7.78
2022-09-04T03:12:36.547Z,8.70
2022-09-04T03:15:28.331Z,8.50
2022-09-04T03:18:31.040Z,7.03
2022-09-04T03:21:24.296Z,6.80
2022-09-04T03:24:19.541Z,10.43
2022-09-04T03:27:08.843Z,7.63
2022-09-04T03:30:02.045Z,7.63
2022-09-04T03:33:03.821Z,7.75
2022-09-04T03:36:11.904Z,8.02
2022-09-04T03:39:05.017Z,8.88
2022-09-04T03:42:10.229Z,6.65
2022-09-04T03:45:02.160Z,11.77
2022-09-04T03:47:53.907Z,6.55
2022-09-04T03:50:49.324Z,8.30
2022-09-04T03:54:02.036Z,7.18
2022-09-04T03:57:10.705Z,8.95
2022-09-04T03:59:59.801Z,8.27
2022-09-04T04:03:02.982Z,7.63
2022-09-04T04:06:02.566Z,6.97
2022-09-04T04:09:20.886Z,11.10
2022-09-04T04:12:27.542Z,6.57
2022-09-04T04:15:21.366Z,10.27
2022-09-04T04:18:29.974Z,9.85
2022-09-04T04:21:31.275Z,6.18
2022-09-04T04:25:03.031Z,9.98
2022-09-04T04:28:07.245Z,8.93
2022-09-04T04:30:54.689Z,10.13
2022-09-04T04:33:49.804Z,9.15
2022-09-04T04:37:11.252Z,7.65
2022-09-04T04:40:06.072Z,7.40
2022-09-04T04:43:20.140Z,8.00
2022-09-04T04:46:24.862Z,6.75
2022-09-04T04:49:37.234Z,8.43
2022-09-04T04:52:55.833Z,11.07
2022-09-04T04:56:04.747Z,9.68
2022-09-04T04:58:54.000Z,6.93
2022-09-04T05:02:07.877Z,11.27
2022-09-04T05:05:02.597Z,6.43
2022-09-04T05:08:07.577Z,6.97
2022-09-04T05:11:06.392Z,7.18
2022-09-04T05:14:20.802Z,11.95
2022-09-04T05:17:25.203Z,8.10
2022-09-04T05:20:29.427Z,8.40
2022-09-04T05:23:39.783Z,7.70
2022-09-04T05:26:44.368Z,7.78
2022-09-04T05:29:47.469Z,11.70
2022-09-04T05:32:38.068Z,8.25
2022-09-04T05:35:45.010Z,9.48
2022-09-04T05:38:59.498Z,7.15
2022-09-04T05:42:06.752Z,8.23
2022-09-04T05:44:57.412Z,8.15
2022-09-04T05:48:27.301Z,8.95
2022-09-04T05:51:42.089Z,12.05
2022-09-04T05:54:45.807Z,7.90
2022-09-04T05:57:53.020Z,9.60
2022-09-04T06:01:08.143Z,9.07
2022-09-04T06:04:19.316Z,10.35
2022-09-04T06:07:13.788Z,10.97
2022-09-04T06:10:03.162Z,7.68
2022-09-04T06:13:07.537Z,9.57
2022-09-04T06:16:02.459Z,9.95
2022-09-04T06:19:15.096Z,11.45
2022-09-04T06:22:17.374Z,11.25
2022-09-04T06:25:06.096Z,12.38
2022-09-04T06:28:13.253Z,9.05
2022-09-04T06:31:21.220Z,12.85
2022-09-04T06:34:39.948Z,11.75
2022-09-04T06:37:36.510Z,12.10
2022-09-04T06:41:00.174Z,12.65
2022-09-04T06:43:58.088Z,14.25
2022-09-04T06:46:56.608Z,17.98
2022-09-04T06:50:11.675Z,10.85
2022-09-04T06:53:01.002Z,14.15
2022-09-04T06:56:07.118Z,17.77
2022-09-04T06:59:01.085Z,14.68
2022-09-04T07:02:17.620Z,16.08
2022-09-04T07:05:22.135Z,11.63
2022-09-04T07:08:08.073Z,10.52
2022-09-04T07:11:20.669Z,30.98
2022-09-04T07:14:29.653Z,42.58
2022-09-04T07:17:34.837Z,22.90
2022-09-04T07:20:30.023Z,28.58
2022-09-04T07:23:20.994Z,20.27
2022-09-04T07:26:13.451Z,22.35
2022-09-04T07:32:07.228Z,16.02
2022-09-04T07:35:03.126Z,12.07
2022-09-04T07:37:58.587Z,15.90
2022-09-04T07:41:09.321Z,12.98
2022-09-04T07:44:23.475Z,15.32
2022-09-04T07:47:16.538Z,13.65
2022-09-04T07:50:22.846Z,19.50
2022-09-04T07:53:27.206Z,14.38
2022-09-04T07:56:31.721Z,17.20
2022-09-04T08:15:28.791Z,19.55
2022-09-04T08:18:36.713Z,18.75
2022-09-04T08:21:31.435Z,22.00
2022-09-04T08:24:36.146Z,25.08
2022-09-04T08:27:44.418Z,20.15
2022-09-04T08:30:39.934Z,21.63
2022-09-04T08:33:38.214Z,18.15
2022-09-04T08:36:42.361Z,19.67
2022-09-04T08:40:11.443Z,19.08
2022-09-04T08:43:06.557Z,19.63
2022-09-04T08:46:11.704Z,19.60
2022-09-04T08:49:17.117Z,20.85
2022-09-04T08:52:40.916Z,21.08
2022-09-04T08:55:50.397Z,17.33
2022-09-04T08:59:04.879Z,19.60
2022-09-04T09:02:06.014Z,16.65
2022-09-04T09:05:28.405Z,19.30
2022-09-04T09:08:14.347Z,18.95
2022-09-04T09:11:25.377Z,20.55
2022-09-04T09:14:41.966Z,22.02
2022-09-04T09:17:54.220Z,18.00
2022-09-04T09:20:45.438Z,15.57
2022-09-04T09:23:56.446Z,16.57
2022-09-04T09:26:55.507Z,16.33
2022-09-04T09:30:00.241Z,16.48
2022-09-04T09:33:03.875Z,23.02
2022-09-04T09:35:57.948Z,23.75
2022-09-04T09:39:36.742Z,15.52
2022-09-04T09:42:31.554Z,20.48
2022-09-04T09:45:38.289Z,16.42
2022-09-04T09:48:30.535Z,15.65
2022-09-04T09:51:31.506Z,17.75
2022-09-04T09:54:23.707Z,14.15
2022-09-04T09:57:33.972Z,16.77
2022-09-04T10:00:23.710Z,16.42
2022-09-04T10:03:51.907Z,20.50
2022-09-04T10:06:56.679Z,14.25
2022-09-04T10:10:30.324Z,17.00
2022-09-04T10:13:28.292Z,16.33
2022-09-04T10:16:46.125Z,16.40
2022-09-04T10:20:08.749Z,15.55
2022-09-04T10:23:07.697Z,14.03
2022-09-04T10:26:15.641Z,12.32
2022-09-04T10:29:14.098Z,15.70
2022-09-04T10:32:09.407Z,11.32
2022-09-04T10:35:25.475Z,15.43
2022-09-04T10:38:20.827Z,59.55
2022-09-04T10:41:39.537Z,25.70
2022-09-04T10:44:40.267Z,13.93
2022-09-04T10:47:41.430Z,12.15
2022-09-04T10:51:08.257Z,12.05
2022-09-04T10:54:30.418Z,10.20
2022-09-04T10:57:44.150Z,9.30
2022-09-04T11:00:50.602Z,12.00
2022-09-04T11:04:03.397Z,8.45
2022-09-04T11:06:58.419Z,7.35
2022-09-04T11:09:59.637Z,8.55
2022-09-04T11:12:45.370Z,6.65
2022-09-04T11:16:30.056Z,14.40
2022-09-04T11:19:37.573Z,11.85
2022-09-04T11:22:34.538Z,7.82
2022-09-04T11:25:44.974Z,7.85
2022-09-04T11:28:46.738Z,9.50
2022-09-04T11:32:21.851Z,9.23
2022-09-04T11:35:46.194Z,7.72
2022-09-04T11:38:44.143Z,7.88
2022-09-04T11:41:58.773Z,9.55
2022-09-04T11:45:17.246Z,10.63
2022-09-04T11:48:26.496Z,10.77
2022-09-04T11:51:33.160Z,15.65
2022-09-04T11:55:14.187Z,8.85
2022-09-04T11:58:46.740Z,13.00
2022-09-04T12:01:35.142Z,7.50
2022-09-04T12:04:42.770Z,13.00
2022-09-04T12:07:58.015Z,8.38
2022-09-04T12:10:59.510Z,6.88
2022-09-04T12:14:30.153Z,8.23
2022-09-04T12:17:34.608Z,7.30
2022-09-04T12:20:51.397Z,6.93
2022-09-04T12:24:14.382Z,7.28
2022-09-04T12:27:21.854Z,7.55
2022-09-04T12:30:23.705Z,5.20
2022-09-04T12:33:34.660Z,5.95
2022-09-04T12:36:48.424Z,7.20
2022-09-04T12:40:04.163Z,20.48
2022-09-04T12:43:01.227Z,17.90
2022-09-04T12:46:06.118Z,16.25
2022-09-04T12:49:04.367Z,12.55
2022-09-04T12:52:27.005Z,9.20
2022-09-04T12:55:19.518Z,8.38
2022-09-04T12:58:08.165Z,11.18
2022-09-04T13:01:45.663Z,7.63
2022-09-04T13:04:44.778Z,8.93
2022-09-04T13:07:58.749Z,13.52
2022-09-04T13:11:03.619Z,5.50
2022-09-04T13:14:11.270Z,10.43
2022-09-04T13:17:16.869Z,9.68
2022-09-04T13:20:20.536Z,8.70
2022-09-04T13:23:39.132Z,11.02
2022-09-04T13:27:07.917Z,6.60
2022-09-04T13:30:09.664Z,5.72
2022-09-04T13:33:20.712Z,7.43
2022-09-04T13:36:22.314Z,6.97
2022-09-04T13:39:19.565Z,4.33
2022-09-04T13:42:28.572Z,6.75
2022-09-04T13:45:23.222Z,7.38
2022-09-04T13:48:20.237Z,6.47
2022-09-04T13:51:29.994Z,7.13
2022-09-04T13:54:21.467Z,8.20
2022-09-04T13:57:28.792Z,8.37
2022-09-04T14:00:17.094Z,4.43
2022-09-04T14:03:07.268Z,11.52
2022-09-04T14:05:53.397Z,5.75
2022-09-04T14:08:39.962Z,9.23
2022-09-04T14:11:58.322Z,4.57
2022-09-04T14:15:07.695Z,7.15
2022-09-04T14:18:14.085Z,7.68
2022-09-04T14:21:33.334Z,9.27
2022-09-04T14:24:34.559Z,6.80
2022-09-04T14:27:35.421Z,8.45
2022-09-04T14:30:23.079Z,9.45
2022-09-04T14:33:19.420Z,7.68
2022-09-04T14:36:43.213Z,10.98
2022-09-04T14:39:35.639Z,3.95
2022-09-04T14:42:46.112Z,6.22
2022-09-04T14:45:53.221Z,7.75
2022-09-04T14:48:42.057Z,6.35
2022-09-04T14:51:28.873Z,4.78
2022-09-04T14:54:30.942Z,11.73
2022-09-04T14:57:22.888Z,6.25
2022-09-04T15:00:09.587Z,17.92
2022-09-04T15:02:58.724Z,7.00
2022-09-04T15:05:56.770Z,7.22
2022-09-04T15:08:44.388Z,11.00
2022-09-04T15:11:33.442Z,9.52
2022-09-04T15:14:34.370Z,6.68
2022-09-04T15:17:28.678Z,6.47
2022-09-04T15:20:36.127Z,6.75
2022-09-04T15:23:55.949Z,5.65
2022-09-04T15:26:51.466Z,9.73
2022-09-04T15:29:38.496Z,6.32
2022-09-04T15:32:26.799Z,13.18
2022-09-04T15:35:28.347Z,13.68
2022-09-04T15:38:27.370Z,9.73
2022-09-04T15:41:27.485Z,9.45
2022-09-04T15:44:40.868Z,8.13
2022-09-04T15:47:55.838Z,7.72
2022-09-04T15:51:19.029Z,12.30
2022-09-04T15:54:07.826Z,9.80
2022-09-04T15:57:08.581Z,10.77
2022-09-04T16:00:26.446Z,7.82
2022-09-04T16:03:29.186Z,7.05
2022-09-04T16:06:20.656Z,4.47
2022-09-04T16:09:29.348Z,7.43
2022-09-04T16:12:26.438Z,5.40
2022-09-04T16:15:23.018Z,4.45
2022-09-04T16:18:39.820Z,6.15
2022-09-04T16:21:43.457Z,6.05
2022-09-04T16:24:35.636Z,7.20
2022-09-04T16:27:24.573Z,5.53
2022-09-04T16:30:26.493Z,7.55
2022-09-04T16:33:27.873Z,3.88
2022-09-04T16:36:17.081Z,4.28
2022-09-04T16:39:23.373Z,5.05
2022-09-04T16:42:21.877Z,7.47
2022-09-04T16:45:15.965Z,3.88
2022-09-04T16:48:33.540Z,5.38
2022-09-04T16:51:41.507Z,3.72
2022-09-04T16:54:35.563Z,3.38
2022-09-04T16:57:29.913Z,3.42
2022-09-04T17:00:17.696Z,6.25
2022-09-04T17:03:19.157Z,6.05
2022-09-04T17:06:18.813Z,4.53
2022-09-04T17:09:21.308Z,4.00
2022-09-04T17:12:40.576Z,4.95
2022-09-04T17:15:37.263Z,3.95
2022-09-04T17:18:25.000Z,5.97
2022-09-04T17:25:47.190Z,4.95
2022-09-04T17:29:03.745Z,6.65
2022-09-04T17:29:10.936Z,4.47
2022-09-04T17:31:45.581Z,4.75
2022-09-04T17:40:44.531Z,3.65
2022-09-04T17:40:55.715Z,3.92
2022-09-04T17:41:39.509Z,6.10
2022-09-04T17:44:35.524Z,6.22
2022-09-04T17:47:32.316Z,5.22
2022-09-04T17:50:22.619Z,6.25
2022-09-04T17:53:20.016Z,5.82
2022-09-04T17:56:23.029Z,3.90
2022-09-04T17:59:23.270Z,5.32
2022-09-04T18:02:23.387Z,6.03
2022-09-04T18:05:13.374Z,5.28
2022-09-04T18:08:11.233Z,6.45
2022-09-04T18:11:01.093Z,4.32
2022-09-04T18:14:32.081Z,5.40
2022-09-04T18:17:29.267Z,4.90
2022-09-04T18:20:29.510Z,6.03
2022-09-04T18:23:51.649Z,6.38
2022-09-04T18:30:51.879Z,5.93
2022-09-04T18:37:12.565Z,8.55
2022-09-04T18:37:16.622Z,7.72
2022-09-04T18:39:38.794Z,7.13
2022-09-04T18:50:28.772Z,9.43
2022-09-04T18:50:29.202Z,10.13
2022-09-04T18:50:30.654Z,8.18
2022-09-04T18:52:16.040Z,12.23
2022-09-04T18:55:09.123Z,7.68
2022-09-04T18:57:55.921Z,4.78
2022-09-04T19:01:20.469Z,5.80
2022-09-04T19:04:31.846Z,5.95
2022-09-04T19:07:34.508Z,5.13
2022-09-04T19:10:25.786Z,7.55
2022-09-04T19:13:22.632Z,8.98
2022-09-04T19:16:11.896Z,5.75
2022-09-04T19:19:17.162Z,6.78
2022-09-04T19:22:21.453Z,4.88
2022-09-04T19:25:22.906Z,5.65
2022-09-04T19:28:13.782Z,5.47
2022-09-04T19:31:06.302Z,5.20
2022-09-04T19:34:23.632Z,4.55
2022-09-04T19:38:34.036Z,4.85
2022-09-04T19:46:00.738Z,8.88
2022-09-04T19:46:17.657Z,10.38
2022-09-04T19:47:27.362Z,6.55
2022-09-04T19:53:19.219Z,6.72
2022-09-04T19:53:46.960Z,6.25
2022-09-04T19:57:31.472Z,6.32
2022-09-04T20:00:38.238Z,8.30
2022-09-04T20:03:33.808Z,8.00
2022-09-04T20:06:24.692Z,6.57
2022-09-04T20:09:28.653Z,8.48
2022-09-04T20:12:34.186Z,6.70
2022-09-04T20:15:25.974Z,6.70
2022-09-04T20:18:26.453Z,7.72
2022-09-04T20:21:24.185Z,6.55
2022-09-04T20:24:19.339Z,6.72
2022-09-04T20:27:20.409Z,6.10
2022-09-04T20:30:32.919Z,6.38
2022-09-04T20:33:24.573Z,5.43
2022-09-04T20:36:12.943Z,7.00
2022-09-04T20:39:24.103Z,8.73
2022-09-04T20:42:22.462Z,7.55
2022-09-04T20:48:07.742Z,5.85
2022-09-04T20:52:50.064Z,7.40
2022-09-04T20:52:51.140Z,6.75
2022-09-04T20:54:59.032Z,6.22
2022-09-04T21:03:08.923Z,6.45
2022-09-04T21:03:21.364Z,7.75
2022-09-04T21:04:53.494Z,7.47
2022-09-04T21:07:47.563Z,7.95
2022-09-04T21:10:49.140Z,8.48
2022-09-04T21:13:48.077Z,10.73
2022-09-04T21:16:55.914Z,7.25
2022-09-04T21:19:54.241Z,9.60
2022-09-04T21:22:48.656Z,6.45
2022-09-04T21:25:40.894Z,7.15
2022-09-04T21:28:30.908Z,6.87
2022-09-04T21:31:43.335Z,6.38
2022-09-04T21:35:02.129Z,7.65
2022-09-04T21:37:58.225Z,6.35
2022-09-04T21:41:02.744Z,6.50
2022-09-04T21:43:48.821Z,8.35
2022-09-04T21:46:58.386Z,7.38
2022-09-04T21:50:23.057Z,12.05
2022-09-04T21:53:45.723Z,6.40
2022-09-04T22:01:39.584Z,6.40
2022-09-04T22:02:35.465Z,7.60
2022-09-04T22:03:44.509Z,9.93
2022-09-04T22:10:10.183Z,7.97
2022-09-04T22:13:41.297Z,5.63
2022-09-04T22:13:50.156Z,7.93
2022-09-04T22:16:42.537Z,5.60
2022-09-04T22:19:47.090Z,8.70
2022-09-04T22:22:38.876Z,8.60
2022-09-04T22:25:39.853Z,8.50
2022-09-04T22:28:41.322Z,6.18
2022-09-04T22:31:30.348Z,6.78
2022-09-04T22:34:40.636Z,7.25
2022-09-04T22:37:51.294Z,9.98
2022-09-04T22:40:56.797Z,11.82
2022-09-04T22:43:47.588Z,5.10
2022-09-04T22:46:46.471Z,10.88
2022-09-04T22:49:54.419Z,5.68
2022-09-04T22:53:03.687Z,7.60
2022-09-04T22:56:24.735Z,5.13
2022-09-04T22:59:30.619Z,5.45
2022-09-04T23:03:07.733Z,5.97
2022-09-04T23:07:43.752Z,9.52
2022-09-04T23:14:00.809Z,7.43
2022-09-04T23:16:01.698Z,6.38
2022-09-04T23:23:15.643Z,5.82
2022-09-04T23:26:50.722Z,8.30
2022-09-04T23:27:00.997Z,8.90
2022-09-04T23:30:27.101Z,7.53
2022-09-04T23:33:29.359Z,7.07
2022-09-04T23:36:51.052Z,8.00
2022-09-04T23:39:43.390Z,9.77
2022-09-04T23:43:03.254Z,6.60
2022-09-04T23:46:18.511Z,5.35
2022-09-04T23:49:32.121Z,7.78
2022-09-04T23:52:48.792Z,5.28
2022-09-04T23:55:59.562Z,13.55
2022-09-04T23:59:04.207Z,8.30
